sensor_id;sensor_type;location;lat;lon;timestamp;temperature;humidity
20432;DHT22;10375;49.136;10.366;2024-02-26T02:05:41;2.70;99.90
20432;DHT22;10375;49.136;10.366;2024-02-26T02:08:35;2.70;99.90
20432;DHT22;10375;49.136;10.366;2024-02-26T02:11:35;2.70;99.90
20432;DHT22;10375;49.136;10.366;2024-02-26T02:14:16;2.80;99.90
20432;DHT22;10375;49.136;10.366;2024-02-26T02:16:57;2.80;99.90
20432;DHT22;10375;49.136;10.366;2024-02-26T02:19:45;2.80;99.90
20432;DHT22;10375;49.136;10.366;2024-02-26T02:26:16;2.70;99.90
20432;DHT22;10375;49.136;10.366;2024-02-26T02:29:37;2.70;99.90
20432;DHT22;10375;49.136;10.366;2024-02-26T02:47:11;2.70;99.90
20432;DHT22;10375;49.136;10.366;2024-02-26T02:49:39;2.70;99.90
20432;DHT22;10375;49.136;10.366;2024-02-26T02:52:06;2.80;99.90
20432;DHT22;10375;49.136;10.366;2024-02-26T03:03:33;3.10;99.90
20432;DHT22;10375;49.136;10.366;2024-02-26T03:06:02;3.10;99.90
20432;DHT22;10375;49.136;10.366;2024-02-26T03:08:34;3.10;99.90
20432;DHT22;10375;49.136;10.366;2024-02-26T03:14:16;3.10;99.90
20432;DHT22;10375;49.136;10.366;2024-02-26T03:16:48;3.00;99.90
20432;DHT22;10375;49.136;10.366;2024-02-26T03:19:21;3.00;99.90
20432;DHT22;10375;49.136;10.366;2024-02-26T03:21:52;3.00;99.90
20432;DHT22;10375;49.136;10.366;2024-02-26T03:24:21;3.00;99.90
20432;DHT22;10375;49.136;10.366;2024-02-26T03:26:51;3.00;99.90
20432;DHT22;10375;49.136;10.366;2024-02-26T03:29:41;2.90;99.90
20432;DHT22;10375;49.136;10.366;2024-02-26T03:32:13;3.00;99.90
20432;DHT22;10375;49.136;10.366;2024-02-26T03:34:45;2.90;99.90
20432;DHT22;10375;49.136;10.366;2024-02-26T03:41:11;3.00;99.90
20432;DHT22;10375;49.136;10.366;2024-02-26T03:47:28;2.90;99.90
20432;DHT22;10375;49.136;10.366;2024-02-26T03:50:05;2.90;99.90
20432;DHT22;10375;49.136;10.366;2024-02-26T03:52:38;2.80;99.90
20432;DHT22;10375;49.136;10.366;2024-02-26T03:55:07;2.80;99.90
20432;DHT22;10375;49.136;10.366;2024-02-26T03:58:06;2.80;99.90
20432;DHT22;10375;49.136;10.366;2024-02-26T04:00:46;2.80;99.90
20432;DHT22;10375;49.136;10.366;2024-02-26T04:07:27;2.90;99.90
20432;DHT22;10375;49.136;10.366;2024-02-26T04:17:44;2.90;99.90
20432;DHT22;10375;49.136;10.366;2024-02-26T04:20:16;2.80;99.90
20432;DHT22;10375;49.136;10.366;2024-02-26T04:22:44;2.90;99.90
20432;DHT22;10375;49.136;10.366;2024-02-26T04:25:20;3.00;99.90
20432;DHT22;10375;49.136;10.366;2024-02-26T04:27:47;3.00;99.90
20432;DHT22;10375;49.136;10.366;2024-02-26T04:30:16;3.10;99.90
20432;DHT22;10375;49.136;10.366;2024-02-26T04:32:46;3.10;99.90
20432;DHT22;10375;49.136;10.366;2024-02-26T04:57:00;3.20;99.90
20432;DHT22;10375;49.136;10.366;2024-02-26T04:59:27;3.30;99.90
20432;DHT22;10375;49.136;10.366;2024-02-26T05:02:05;3.30;99.90
20432;DHT22;10375;49.136;10.366;2024-02-26T05:04:33;3.30;99.90
20432;DHT22;10375;49.136;10.366;2024-02-26T05:07:01;3.30;99.90
20432;DHT22;10375;49.136;10.366;2024-02-26T05:09:36;3.30;99.90
20432;DHT22;10375;49.136;10.366;2024-02-26T05:12:14;3.30;99.90
20432;DHT22;10375;49.136;10.366;2024-02-26T05:22:16;3.30;99.90
20432;DHT22;10375;49.136;10.366;2024-02-26T05:24:46;3.30;99.90
20432;DHT22;10375;49.136;10.366;2024-02-26T05:32:31;3.30;99.90
20432;DHT22;10375;49.136;10.366;2024-02-26T05:35:05;3.30;99.90
20432;DHT22;10375;49.136;10.366;2024-02-26T05:41:28;3.20;99.90
20432;DHT22;10375;49.136;10.366;2024-02-26T06:24:11;3.20;99.90
20432;DHT22;10375;49.136;10.366;2024-02-26T06:26:38;3.30;99.90
20432;DHT22;10375;49.136;10.366;2024-02-26T06:29:14;3.30;99.90
20432;DHT22;10375;49.136;10.366;2024-02-26T06:31:44;3.30;99.90
20432;DHT22;10375;49.136;10.366;2024-02-26T06:34:13;3.40;99.90
20432;DHT22;10375;49.136;10.366;2024-02-26T06:36:42;3.40;99.90
20432;DHT22;10375;49.136;10.366;2024-02-26T06:39:19;3.50;99.90
20432;DHT22;10375;49.136;10.366;2024-02-26T06:44:38;3.60;99.90
20432;DHT22;10375;49.136;10.366;2024-02-26T06:47:06;3.70;99.90
20432;DHT22;10375;49.136;10.366;2024-02-26T06:49:36;3.70;99.90
20432;DHT22;10375;49.136;10.366;2024-02-26T06:52:04;3.80;99.90
20432;DHT22;10375;49.136;10.366;2024-02-26T06:55:10;3.80;99.90
20432;DHT22;10375;49.136;10.366;2024-02-26T06:58:00;3.90;99.90
20432;DHT22;10375;49.136;10.366;2024-02-26T07:00:31;4.00;99.90
20432;DHT22;10375;49.136;10.366;2024-02-26T07:03:12;4.10;99.90
20432;DHT22;10375;49.136;10.366;2024-02-26T07:05:42;4.10;99.90
20432;DHT22;10375;49.136;10.366;2024-02-26T07:11:23;4.30;99.90
20432;DHT22;10375;49.136;10.366;2024-02-26T07:17:55;4.60;99.90
20432;DHT22;10375;49.136;10.366;2024-02-26T07:20:56;4.70;99.90
20432;DHT22;10375;49.136;10.366;2024-02-26T07:24:11;4.80;99.90
20432;DHT22;10375;49.136;10.366;2024-02-26T07:49:19;4.90;99.90
20432;DHT22;10375;49.136;10.366;2024-02-26T07:51:57;4.90;99.90
20432;DHT22;10375;49.136;10.366;2024-02-26T07:54:27;5.00;99.90
20432;DHT22;10375;49.136;10.366;2024-02-26T07:57:02;5.00;99.90
20432;DHT22;10375;49.136;10.366;2024-02-26T07:59:52;5.00;99.90
20432;DHT22;10375;49.136;10.366;2024-02-26T08:06:13;5.30;99.90
20432;DHT22;10375;49.136;10.366;2024-02-26T08:08:49;5.30;99.90
20432;DHT22;10375;49.136;10.366;2024-02-26T08:11:18;5.40;99.90
20432;DHT22;10375;49.136;10.366;2024-02-26T08:14:05;5.50;99.90
20432;DHT22;10375;49.136;10.366;2024-02-26T08:25:19;6.10;99.90
20432;DHT22;10375;49.136;10.366;2024-02-26T08:27:56;6.40;99.90
20432;DHT22;10375;49.136;10.366;2024-02-26T08:30:24;6.50;99.90
20432;DHT22;10375;49.136;10.366;2024-02-26T08:32:52;6.70;99.90
20432;DHT22;10375;49.136;10.366;2024-02-26T08:58:16;8.00;99.90
20432;DHT22;10375;49.136;10.366;2024-02-26T09:00:43;8.00;99.90
20432;DHT22;10375;49.136;10.366;2024-02-26T09:03:28;8.00;99.90
20432;DHT22;10375;49.136;10.366;2024-02-26T09:06:10;7.90;99.90
20432;DHT22;10375;49.136;10.366;2024-02-26T09:08:39;7.90;99.90
20432;DHT22;10375;49.136;10.366;2024-02-26T09:11:12;8.00;99.90
20432;DHT22;10375;49.136;10.366;2024-02-26T09:13:40;7.80;99.90
20432;DHT22;10375;49.136;10.366;2024-02-26T09:16:07;7.90;99.90
20432;DHT22;10375;49.136;10.366;2024-02-26T09:18:38;7.90;99.90
20432;DHT22;10375;49.136;10.366;2024-02-26T09:21:07;8.00;99.90
20432;DHT22;10375;49.136;10.366;2024-02-26T09:23:55;8.10;99.90
20432;DHT22;10375;49.136;10.366;2024-02-26T09:26:28;8.30;99.90
20432;DHT22;10375;49.136;10.366;2024-02-26T09:29:17;8.40;99.90
20432;DHT22;10375;49.136;10.366;2024-02-26T09:31:46;8.70;99.90
20432;DHT22;10375;49.136;10.366;2024-02-26T09:34:21;8.90;99.90
20432;DHT22;10375;49.136;10.366;2024-02-26T09:36:58;9.00;99.90
20432;DHT22;10375;49.136;10.366;2024-02-26T09:39:38;9.10;99.90
20432;DHT22;10375;49.136;10.366;2024-02-26T09:42:06;9.20;99.90
20432;DHT22;10375;49.136;10.366;2024-02-26T09:55:37;9.90;99.90
20432;DHT22;10375;49.136;10.366;2024-02-26T09:58:22;10.00;99.90
20432;DHT22;10375;49.136;10.366;2024-02-26T10:00:57;10.00;99.90
20432;DHT22;10375;49.136;10.366;2024-02-26T10:04:00;10.10;99.90
20432;DHT22;10375;49.136;10.366;2024-02-26T10:07:40;10.10;99.90
20432;DHT22;10375;49.136;10.366;2024-02-26T10:10:25;10.20;99.90
20432;DHT22;10375;49.136;10.366;2024-02-26T10:13:22;10.30;99.90
20432;DHT22;10375;49.136;10.366;2024-02-26T10:15:50;10.30;99.90
20432;DHT22;10375;49.136;10.366;2024-02-26T10:18:17;10.30;99.90
20432;DHT22;10375;49.136;10.366;2024-02-26T10:21:01;10.30;99.90
20432;DHT22;10375;49.136;10.366;2024-02-26T10:23:29;10.20;99.90
20432;DHT22;10375;49.136;10.366;2024-02-26T10:25:56;10.20;99.90
20432;DHT22;10375;49.136;10.366;2024-02-26T10:28:23;10.30;99.90
20432;DHT22;10375;49.136;10.366;2024-02-26T10:30:56;10.10;99.90
20432;DHT22;10375;49.136;10.366;2024-02-26T10:38:44;10.20;99.90
20432;DHT22;10375;49.136;10.366;2024-02-26T10:41:29;10.40;99.90
20432;DHT22;10375;49.136;10.366;2024-02-26T10:46:42;10.70;99.90
20432;DHT22;10375;49.136;10.366;2024-02-26T10:49:14;10.80;99.90
20432;DHT22;10375;49.136;10.366;2024-02-26T10:55:19;11.20;99.90
20432;DHT22;10375;49.136;10.366;2024-02-26T11:03:21;11.80;99.90
20432;DHT22;10375;49.136;10.366;2024-02-26T11:06:03;12.10;99.90
20432;DHT22;10375;49.136;10.366;2024-02-26T11:08:35;12.20;99.90
20432;DHT22;10375;49.136;10.366;2024-02-26T11:11:15;12.30;99.90
20432;DHT22;10375;49.136;10.366;2024-02-26T11:14:21;12.50;99.90
20432;DHT22;10375;49.136;10.366;2024-02-26T11:16:58;12.70;99.90
20432;DHT22;10375;49.136;10.366;2024-02-26T11:19:27;12.80;99.90
20432;DHT22;10375;49.136;10.366;2024-02-26T11:22:00;12.70;99.90
20432;DHT22;10375;49.136;10.366;2024-02-26T11:24:58;12.60;99.90
20432;DHT22;10375;49.136;10.366;2024-02-26T11:27:32;12.70;99.90
20432;DHT22;10375;49.136;10.366;2024-02-26T11:30:20;12.50;99.90
20432;DHT22;10375;49.136;10.366;2024-02-26T11:33:00;12.50;99.90
20432;DHT22;10375;49.136;10.366;2024-02-26T11:35:36;12.70;99.90
20432;DHT22;10375;49.136;10.366;2024-02-26T11:38:06;12.80;99.90
20432;DHT22;10375;49.136;10.366;2024-02-26T11:40:53;12.80;99.90
20432;DHT22;10375;49.136;10.366;2024-02-26T11:43:50;12.70;99.90
20432;DHT22;10375;49.136;10.366;2024-02-26T11:46:32;12.80;99.90
20432;DHT22;10375;49.136;10.366;2024-02-26T12:01:42;12.60;99.90
20432;DHT22;10375;49.136;10.366;2024-02-26T12:04:27;12.50;99.90
20432;DHT22;10375;49.136;10.366;2024-02-26T12:07:02;12.50;99.90
20432;DHT22;10375;49.136;10.366;2024-02-26T12:09:42;12.30;99.90
20432;DHT22;10375;49.136;10.366;2024-02-26T12:12:18;12.20;99.90
20432;DHT22;10375;49.136;10.366;2024-02-26T12:14:55;12.10;99.90
20432;DHT22;10375;49.136;10.366;2024-02-26T12:17:25;12.20;99.90
20432;DHT22;10375;49.136;10.366;2024-02-26T12:20:11;12.30;99.90
20432;DHT22;10375;49.136;10.366;2024-02-26T12:22:40;12.10;99.90
20432;DHT22;10375;49.136;10.366;2024-02-26T12:25:11;12.00;99.90
20432;DHT22;10375;49.136;10.366;2024-02-26T12:30:14;12.00;99.90
20432;DHT22;10375;49.136;10.366;2024-02-26T12:32:42;12.00;99.90
20432;DHT22;10375;49.136;10.366;2024-02-26T12:35:14;11.80;99.90
20432;DHT22;10375;49.136;10.366;2024-02-26T12:37:43;11.80;99.90
20432;DHT22;10375;49.136;10.366;2024-02-26T12:40:12;12.00;99.90
20432;DHT22;10375;49.136;10.366;2024-02-26T12:43:17;12.10;99.90
20432;DHT22;10375;49.136;10.366;2024-02-26T12:49:17;12.50;99.90
20432;DHT22;10375;49.136;10.366;2024-02-26T12:51:52;12.50;99.90
20432;DHT22;10375;49.136;10.366;2024-02-26T12:54:19;12.50;99.90
20432;DHT22;10375;49.136;10.366;2024-02-26T12:56:56;12.40;99.90
20432;DHT22;10375;49.136;10.366;2024-02-26T12:59:25;12.40;99.90
20432;DHT22;10375;49.136;10.366;2024-02-26T13:01:54;12.30;99.90
20432;DHT22;10375;49.136;10.366;2024-02-26T13:04:23;12.30;99.90
20432;DHT22;10375;49.136;10.366;2024-02-26T13:10:07;12.30;99.90
20432;DHT22;10375;49.136;10.366;2024-02-26T13:12:48;12.10;99.90
20432;DHT22;10375;49.136;10.366;2024-02-26T13:18:36;12.10;99.90
20432;DHT22;10375;49.136;10.366;2024-02-26T13:21:41;11.80;99.90
20432;DHT22;10375;49.136;10.366;2024-02-26T13:24:20;11.80;99.90
20432;DHT22;10375;49.136;10.366;2024-02-26T13:26:55;11.80;99.90
20432;DHT22;10375;49.136;10.366;2024-02-26T13:30:11;11.60;99.90
20432;DHT22;10375;49.136;10.366;2024-02-26T13:32:40;11.50;99.90
20432;DHT22;10375;49.136;10.366;2024-02-26T13:35:14;11.50;99.90
20432;DHT22;10375;49.136;10.366;2024-02-26T13:38:08;11.50;99.90
20432;DHT22;10375;49.136;10.366;2024-02-26T13:40:44;11.50;99.90
20432;DHT22;10375;49.136;10.366;2024-02-26T13:43:11;11.50;99.90
20432;DHT22;10375;49.136;10.366;2024-02-26T13:46:10;11.40;99.90
20432;DHT22;10375;49.136;10.366;2024-02-26T13:48:39;11.30;99.90
20432;DHT22;10375;49.136;10.366;2024-02-26T13:51:24;11.40;99.90
20432;DHT22;10375;49.136;10.366;2024-02-26T13:53:59;11.30;99.90
20432;DHT22;10375;49.136;10.366;2024-02-26T13:56:52;11.10;99.90
20432;DHT22;10375;49.136;10.366;2024-02-26T13:59:21;11.10;99.90
20432;DHT22;10375;49.136;10.366;2024-02-26T14:01:57;11.00;99.90
20432;DHT22;10375;49.136;10.366;2024-02-26T14:04:24;11.00;99.90
20432;DHT22;10375;49.136;10.366;2024-02-26T14:06:59;11.00;99.90
20432;DHT22;10375;49.136;10.366;2024-02-26T14:09:27;11.00;99.90
20432;DHT22;10375;49.136;10.366;2024-02-26T14:12:29;11.00;99.90
20432;DHT22;10375;49.136;10.366;2024-02-26T14:14:57;11.00;99.90
20432;DHT22;10375;49.136;10.366;2024-02-26T14:17:43;10.90;99.90
20432;DHT22;10375;49.136;10.366;2024-02-26T14:20:11;10.90;99.90
20432;DHT22;10375;49.136;10.366;2024-02-26T14:22:38;10.90;99.90
20432;DHT22;10375;49.136;10.366;2024-02-26T14:25:06;10.80;99.90
20432;DHT22;10375;49.136;10.366;2024-02-26T14:27:53;10.80;99.90
20432;DHT22;10375;49.136;10.366;2024-02-26T14:30:21;10.70;99.90
20432;DHT22;10375;49.136;10.366;2024-02-26T14:33:18;10.70;99.90
20432;DHT22;10375;49.136;10.366;2024-02-26T14:35:45;10.70;99.90
20432;DHT22;10375;49.136;10.366;2024-02-26T14:38:21;10.70;99.90
20432;DHT22;10375;49.136;10.366;2024-02-26T14:40:50;10.70;99.90
20432;DHT22;10375;49.136;10.366;2024-02-26T14:43:17;10.70;99.90
20432;DHT22;10375;49.136;10.366;2024-02-26T14:45:50;10.80;99.90
20432;DHT22;10375;49.136;10.366;2024-02-26T14:48:18;10.80;99.90
20432;DHT22;10375;49.136;10.366;2024-02-26T14:50:53;10.80;99.90
20432;DHT22;10375;49.136;10.366;2024-02-26T14:53:20;10.80;99.90
20432;DHT22;10375;49.136;10.366;2024-02-26T14:55:48;10.80;99.90
20432;DHT22;10375;49.136;10.366;2024-02-26T14:58:16;10.80;99.90
20432;DHT22;10375;49.136;10.366;2024-02-26T15:00:57;10.80;99.90
20432;DHT22;10375;49.136;10.366;2024-02-26T15:03:24;10.80;99.90
20432;DHT22;10375;49.136;10.366;2024-02-26T15:06:03;10.70;99.90
20432;DHT22;10375;49.136;10.366;2024-02-26T15:08:31;10.70;99.90
20432;DHT22;10375;49.136;10.366;2024-02-26T15:11:01;10.70;99.90
20432;DHT22;10375;49.136;10.366;2024-02-26T15:13:35;10.60;99.90
20432;DHT22;10375;49.136;10.366;2024-02-26T15:16:04;10.60;99.90
20432;DHT22;10375;49.136;10.366;2024-02-26T15:18:31;10.60;99.90
20432;DHT22;10375;49.136;10.366;2024-02-26T15:21:02;10.60;99.90
20432;DHT22;10375;49.136;10.366;2024-02-26T15:24:04;10.50;99.90
20432;DHT22;10375;49.136;10.366;2024-02-26T15:26:34;10.50;99.90
20432;DHT22;10375;49.136;10.366;2024-02-26T15:29:06;10.40;99.90
20432;DHT22;10375;49.136;10.366;2024-02-26T15:31:36;10.40;99.90
20432;DHT22;10375;49.136;10.366;2024-02-26T15:34:17;10.30;99.90
20432;DHT22;10375;49.136;10.366;2024-02-26T15:36:45;10.30;99.90
20432;DHT22;10375;49.136;10.366;2024-02-26T15:39:15;10.30;99.90
20432;DHT22;10375;49.136;10.366;2024-02-26T15:41:45;10.20;99.90
20432;DHT22;10375;49.136;10.366;2024-02-26T15:44:14;10.20;99.90
20432;DHT22;10375;49.136;10.366;2024-02-26T15:46:42;10.20;99.90
20432;DHT22;10375;49.136;10.366;2024-02-26T15:49:09;10.10;99.90
20432;DHT22;10375;49.136;10.366;2024-02-26T15:51:50;10.10;99.90
20432;DHT22;10375;49.136;10.366;2024-02-26T15:54:17;10.10;99.90
20432;DHT22;10375;49.136;10.366;2024-02-26T15:56:47;10.10;99.90
20432;DHT22;10375;49.136;10.366;2024-02-26T15:59:19;10.00;99.90
20432;DHT22;10375;49.136;10.366;2024-02-26T16:01:54;10.10;99.90
20432;DHT22;10375;49.136;10.366;2024-02-26T16:04:21;10.00;99.90
20432;DHT22;10375;49.136;10.366;2024-02-26T16:06:52;10.00;99.90
20432;DHT22;10375;49.136;10.366;2024-02-26T16:09:23;10.00;99.90
20432;DHT22;10375;49.136;10.366;2024-02-26T16:12:13;9.90;99.90
20432;DHT22;10375;49.136;10.366;2024-02-26T16:14:50;9.80;99.90
20432;DHT22;10375;49.136;10.366;2024-02-26T16:19:51;9.60;99.90
20432;DHT22;10375;49.136;10.366;2024-02-26T16:22:24;9.50;99.90
20432;DHT22;10375;49.136;10.366;2024-02-26T16:24:51;9.40;99.90
20432;DHT22;10375;49.136;10.366;2024-02-26T16:27:20;9.40;99.90
20432;DHT22;10375;49.136;10.366;2024-02-26T16:29:47;9.30;99.90
20432;DHT22;10375;49.136;10.366;2024-02-26T16:32:26;9.20;99.90
20432;DHT22;10375;49.136;10.366;2024-02-26T16:34:53;9.20;99.90
20432;DHT22;10375;49.136;10.366;2024-02-26T16:37:32;9.20;99.90
20432;DHT22;10375;49.136;10.366;2024-02-26T16:40:02;9.20;99.90
20432;DHT22;10375;49.136;10.366;2024-02-26T16:42:39;9.10;99.90
20432;DHT22;10375;49.136;10.366;2024-02-26T16:45:07;9.10;99.90
20432;DHT22;10375;49.136;10.366;2024-02-26T16:47:38;9.00;99.90
20432;DHT22;10375;49.136;10.366;2024-02-26T16:50:06;9.00;99.90
20432;DHT22;10375;49.136;10.366;2024-02-26T16:53:02;9.00;99.90
20432;DHT22;10375;49.136;10.366;2024-02-26T16:55:30;8.90;99.90
20432;DHT22;10375;49.136;10.366;2024-02-26T16:57:57;8.80;99.90
20432;DHT22;10375;49.136;10.366;2024-02-26T17:00:24;8.80;99.90
20432;DHT22;10375;49.136;10.366;2024-02-26T17:02:52;8.80;99.90
20432;DHT22;10375;49.136;10.366;2024-02-26T17:05:35;8.70;99.90
20432;DHT22;10375;49.136;10.366;2024-02-26T17:08:02;8.70;99.90
20432;DHT22;10375;49.136;10.366;2024-02-26T17:10:33;8.70;99.90
20432;DHT22;10375;49.136;10.366;2024-02-26T17:13:03;8.60;99.90
20432;DHT22;10375;49.136;10.366;2024-02-26T17:15:38;8.50;99.90
20432;DHT22;10375;49.136;10.366;2024-02-26T17:18:06;8.50;99.90
20432;DHT22;10375;49.136;10.366;2024-02-26T17:20:40;8.50;99.90
20432;DHT22;10375;49.136;10.366;2024-02-26T17:23:09;8.50;99.90
20432;DHT22;10375;49.136;10.366;2024-02-26T17:25:38;8.40;99.90
20432;DHT22;10375;49.136;10.366;2024-02-26T17:31:06;8.30;99.90
20432;DHT22;10375;49.136;10.366;2024-02-26T17:33:35;8.30;99.90
20432;DHT22;10375;49.136;10.366;2024-02-26T17:36:02;8.30;99.90
20432;DHT22;10375;49.136;10.366;2024-02-26T17:38:30;8.30;99.90
20432;DHT22;10375;49.136;10.366;2024-02-26T17:40:57;8.20;99.90
20432;DHT22;10375;49.136;10.366;2024-02-26T17:43:30;8.20;99.90
20432;DHT22;10375;49.136;10.366;2024-02-26T17:45:58;8.10;99.90
20432;DHT22;10375;49.136;10.366;2024-02-26T17:48:30;8.20;99.90
20432;DHT22;10375;49.136;10.366;2024-02-26T17:50:58;8.20;99.90
20432;DHT22;10375;49.136;10.366;2024-02-26T17:53:39;8.20;99.90
20432;DHT22;10375;49.136;10.366;2024-02-26T17:56:11;8.20;99.90
20432;DHT22;10375;49.136;10.366;2024-02-26T17:58:43;8.20;99.90
20432;DHT22;10375;49.136;10.366;2024-02-26T18:01:14;8.20;99.90
20432;DHT22;10375;49.136;10.366;2024-02-26T18:03:42;8.30;99.90
20432;DHT22;10375;49.136;10.366;2024-02-26T18:06:10;8.20;99.90
20432;DHT22;10375;49.136;10.366;2024-02-26T18:08:43;8.20;99.90
20432;DHT22;10375;49.136;10.366;2024-02-26T18:11:11;8.20;99.90
20432;DHT22;10375;49.136;10.366;2024-02-26T18:13:41;8.10;99.90
20432;DHT22;10375;49.136;10.366;2024-02-26T18:16:12;8.10;99.90
20432;DHT22;10375;49.136;10.366;2024-02-26T18:18:40;8.10;99.90
20432;DHT22;10375;49.136;10.366;2024-02-26T18:21:10;8.00;99.90
20432;DHT22;10375;49.136;10.366;2024-02-26T18:23:45;8.00;99.90
20432;DHT22;10375;49.136;10.366;2024-02-26T18:26:13;8.00;99.90
20432;DHT22;10375;49.136;10.366;2024-02-26T18:28:49;8.00;99.90
20432;DHT22;10375;49.136;10.366;2024-02-26T18:31:17;8.10;99.90
20432;DHT22;10375;49.136;10.366;2024-02-26T18:33:56;8.10;99.90
20432;DHT22;10375;49.136;10.366;2024-02-26T18:36:24;8.20;99.90
20432;DHT22;10375;49.136;10.366;2024-02-26T18:39:20;8.20;99.90
20432;DHT22;10375;49.136;10.366;2024-02-26T18:41:48;8.20;99.90
20432;DHT22;10375;49.136;10.366;2024-02-26T18:44:15;8.10;99.90
20432;DHT22;10375;49.136;10.366;2024-02-26T18:46:44;8.10;99.90
20432;DHT22;10375;49.136;10.366;2024-02-26T18:49:12;8.10;99.90
20432;DHT22;10375;49.136;10.366;2024-02-26T18:51:49;8.10;99.90
20432;DHT22;10375;49.136;10.366;2024-02-26T18:54:16;8.20;99.90
20432;DHT22;10375;49.136;10.366;2024-02-26T18:56:54;8.10;99.90
20432;DHT22;10375;49.136;10.366;2024-02-26T18:59:24;8.10;99.90
20432;DHT22;10375;49.136;10.366;2024-02-26T19:01:55;8.10;99.90
20432;DHT22;10375;49.136;10.366;2024-02-26T19:04:23;8.10;99.90
20432;DHT22;10375;49.136;10.366;2024-02-26T19:06:51;8.00;99.90
20432;DHT22;10375;49.136;10.366;2024-02-26T19:09:19;7.90;99.90
20432;DHT22;10375;49.136;10.366;2024-02-26T19:11:50;7.70;99.90
20432;DHT22;10375;49.136;10.366;2024-02-26T19:18:17;7.70;99.90
20432;DHT22;10375;49.136;10.366;2024-02-26T19:20:52;7.60;99.90
20432;DHT22;10375;49.136;10.366;2024-02-26T19:23:33;7.50;99.90
20432;DHT22;10375;49.136;10.366;2024-02-26T19:26:21;7.50;99.90
20432;DHT22;10375;49.136;10.366;2024-02-26T19:28:57;7.50;99.90
20432;DHT22;10375;49.136;10.366;2024-02-26T19:31:39;7.50;99.90
20432;DHT22;10375;49.136;10.366;2024-02-26T20:13:53;7.00;99.90
20432;DHT22;10375;49.136;10.366;2024-02-26T20:16:21;7.00;99.90
20432;DHT22;10375;49.136;10.366;2024-02-26T20:18:58;7.00;99.90
20432;DHT22;10375;49.136;10.366;2024-02-26T20:21:25;7.00;99.90
20432;DHT22;10375;49.136;10.366;2024-02-26T20:24:03;7.00;99.90
20432;DHT22;10375;49.136;10.366;2024-02-26T20:26:30;7.00;99.90
20432;DHT22;10375;49.136;10.366;2024-02-26T20:29:12;6.90;99.90
20432;DHT22;10375;49.136;10.366;2024-02-26T20:31:41;6.90;99.90
20432;DHT22;10375;49.136;10.366;2024-02-26T20:34:09;6.90;99.90
20432;DHT22;10375;49.136;10.366;2024-02-26T20:36:43;6.90;99.90
20432;DHT22;10375;49.136;10.366;2024-02-26T20:39:11;6.90;99.90
20432;DHT22;10375;49.136;10.366;2024-02-26T20:41:42;6.90;99.90
20432;DHT22;10375;49.136;10.366;2024-02-26T20:44:10;6.90;99.90
20432;DHT22;10375;49.136;10.366;2024-02-26T20:46:45;6.80;99.90
20432;DHT22;10375;49.136;10.366;2024-02-26T20:49:13;6.80;99.90
20432;DHT22;10375;49.136;10.366;2024-02-26T20:51:59;6.80;99.90
20432;DHT22;10375;49.136;10.366;2024-02-26T20:54:28;6.80;99.90
20432;DHT22;10375;49.136;10.366;2024-02-26T20:56:57;6.80;99.90
20432;DHT22;10375;49.136;10.366;2024-02-26T20:59:25;6.80;99.90
20432;DHT22;10375;49.136;10.366;2024-02-26T21:01:54;6.80;99.90
20432;DHT22;10375;49.136;10.366;2024-02-26T21:04:21;6.80;99.90
20432;DHT22;10375;49.136;10.366;2024-02-26T21:06:50;6.80;99.90
20432;DHT22;10375;49.136;10.366;2024-02-26T21:09:19;6.80;99.90
20432;DHT22;10375;49.136;10.366;2024-02-26T21:11:46;6.80;99.90
20432;DHT22;10375;49.136;10.366;2024-02-26T21:14:15;6.80;99.90
20432;DHT22;10375;49.136;10.366;2024-02-26T21:16:42;6.80;99.90
20432;DHT22;10375;49.136;10.366;2024-02-26T21:19:10;6.80;99.90
20432;DHT22;10375;49.136;10.366;2024-02-26T21:21:38;6.90;99.90
20432;DHT22;10375;49.136;10.366;2024-02-26T21:24:05;6.80;99.90
20432;DHT22;10375;49.136;10.366;2024-02-26T21:26:33;6.80;99.90
20432;DHT22;10375;49.136;10.366;2024-02-26T21:29:00;6.80;99.90
20432;DHT22;10375;49.136;10.366;2024-02-26T21:31:27;6.80;99.90
20432;DHT22;10375;49.136;10.366;2024-02-26T21:33:55;6.80;99.90
20432;DHT22;10375;49.136;10.366;2024-02-26T21:36:22;6.80;99.90
20432;DHT22;10375;49.136;10.366;2024-02-26T21:38:51;6.70;99.90
20432;DHT22;10375;49.136;10.366;2024-02-26T21:41:18;6.70;99.90
20432;DHT22;10375;49.136;10.366;2024-02-26T21:43:46;6.70;99.90
20432;DHT22;10375;49.136;10.366;2024-02-26T21:46:18;6.70;99.90
20432;DHT22;10375;49.136;10.366;2024-02-26T21:48:46;6.70;99.90
20432;DHT22;10375;49.136;10.366;2024-02-26T21:51:14;6.70;99.90
20432;DHT22;10375;49.136;10.366;2024-02-26T21:53:41;6.70;99.90
20432;DHT22;10375;49.136;10.366;2024-02-26T21:56:09;6.60;99.90
20432;DHT22;10375;49.136;10.366;2024-02-26T21:58:36;6.70;99.90
20432;DHT22;10375;49.136;10.366;2024-02-26T22:01:03;6.70;99.90
20432;DHT22;10375;49.136;10.366;2024-02-26T22:03:31;6.70;99.90
20432;DHT22;10375;49.136;10.366;2024-02-26T22:05:58;6.60;99.90
20432;DHT22;10375;49.136;10.366;2024-02-26T22:08:29;6.70;99.90
20432;DHT22;10375;49.136;10.366;2024-02-26T22:10:58;6.60;99.90
20432;DHT22;10375;49.136;10.366;2024-02-26T22:13:28;6.60;99.90
20432;DHT22;10375;49.136;10.366;2024-02-26T22:15:55;6.60;99.90
20432;DHT22;10375;49.136;10.366;2024-02-26T22:18:25;6.60;99.90
20432;DHT22;10375;49.136;10.366;2024-02-26T22:20:52;6.60;99.90
20432;DHT22;10375;49.136;10.366;2024-02-26T22:23:20;6.60;99.90
20432;DHT22;10375;49.136;10.366;2024-02-26T22:25:48;6.60;99.90
20432;DHT22;10375;49.136;10.366;2024-02-26T22:28:15;6.60;99.90
20432;DHT22;10375;49.136;10.366;2024-02-26T22:30:42;6.60;99.90
20432;DHT22;10375;49.136;10.366;2024-02-26T22:33:11;6.60;99.90
20432;DHT22;10375;49.136;10.366;2024-02-26T22:35:38;6.60;99.90
20432;DHT22;10375;49.136;10.366;2024-02-26T22:38:24;6.60;99.90
20432;DHT22;10375;49.136;10.366;2024-02-26T22:40:52;6.60;99.90
20432;DHT22;10375;49.136;10.366;2024-02-26T22:43:19;6.60;99.90
20432;DHT22;10375;49.136;10.366;2024-02-26T22:45:50;6.60;99.90
20432;DHT22;10375;49.136;10.366;2024-02-26T22:48:17;6.60;99.90
20432;DHT22;10375;49.136;10.366;2024-02-26T22:50:47;6.60;99.90
20432;DHT22;10375;49.136;10.366;2024-02-26T22:53:14;6.60;99.90
20432;DHT22;10375;49.136;10.366;2024-02-26T22:55:42;6.60;99.90
20432;DHT22;10375;49.136;10.366;2024-02-26T22:58:11;6.60;99.90
20432;DHT22;10375;49.136;10.366;2024-02-26T23:00:39;6.50;99.90
20432;DHT22;10375;49.136;10.366;2024-02-26T23:03:07;6.50;99.90
20432;DHT22;10375;49.136;10.366;2024-02-26T23:05:36;6.50;99.90
20432;DHT22;10375;49.136;10.366;2024-02-26T23:08:03;6.50;99.90
20432;DHT22;10375;49.136;10.366;2024-02-26T23:10:32;6.50;99.90